Bryan, Texas
Current Conditions -  °F | °C
As of 1:15 PM on Saturday 25 Oct 2014 (Local Time) from KCFD Reporting Station
Clear Clear  
Wind Chill: 28°   Ceiling: Unl
Heat Index: 28°   Visibility: 10mi
Dew Point: 16°   Wind: 5mph
Humidity: 49%   Direction: 200°SSW
Pressure: 30.16"   Gusts: NA
Location:  30.67°N, 96.37°W
Report Text: KCFD 251815Z AUTO 20004KT 10SM CLR 28/16 A3016 RMK AO2 T02750159
Loading
Personal Weather Stations






























Interactive Weather Map New forecast layout! Learn more

10-Day Weather Forecast

Advertisements
Track Severe Weather on mobile